Virginie Heriot — FGH2040 — position and weather

sailwx.info

Track history (hours):
 
Tides and Currents Weather Stations Pressure Air Temp Water Temp Dewpoint Dewpoint Depression Visibility Wind Speed Wind Dir Waves Ship Positions

Virginie Heriot

Last reported at 2018-Jun-06 10:17 UTC. Time now 2018-Jun-22 14:54 UTC.
Position N 48°17' W 004°25'.
Warning: this ship's position is 16 days out of date.

Length 14 m.

Type: Sailing vessel. MMSI: 227071310.

Date/timePositionNaut miles runAvg speedWind from/ knotsBaromVisibWave heightAir tempDewpointWater temp
2018-Jun-06 10:17N 48°17' W 004°25'0 0.7
2018-Jun-06 10:00N 48°17' W 004°25'1 2.7
2018-Jun-06 09:30N 48°18' W 004°26'2 4.5
2018-Jun-06 09:00N 48°19' W 004°30'2 4.4
2018-Jun-06 08:31N 48°18' W 004°26'  
2018-May-30 13:42N 48°17' W 004°25'0 1.8
2018-May-30 13:29N 48°17' W 004°25'1 2.0
2018-May-30 13:00N 48°18' W 004°26'2 4.2
2018-May-30 12:31N 48°18' W 004°29'1 2.5
2018-May-30 12:00N 48°17' W 004°30'0 0.1
2018-May-30 11:28N 48°17' W 004°30'0 0.0
2018-May-30 10:58N 48°17' W 004°30'0 0.0
2018-May-30 10:28N 48°17' W 004°30'1 1.7
2018-May-30 10:00N 48°18' W 004°29'1 2.6
2018-May-30 09:30N 48°18' W 004°27'1 2.9
2018-May-30 09:01N 48°18' W 004°25'1 1.6
2018-May-30 08:30N 48°17' W 004°25'  
Track history (hours):
 
Tides and Currents Weather Stations Pressure Air Temp Water Temp Dewpoint Dewpoint Depression Visibility Wind Speed Wind Dir Waves Ship Positions

Virginie Heriot

Last reported at 2018-Jun-06 10:17 UTC. Time now 2018-Jun-22 14:54 UTC.
Position N 48°17' W 004°25'.
Warning: this ship's position is 16 days out of date.

Length 14 m.

Type: Sailing vessel. MMSI: 227071310.

Date/timePositionNaut miles runAvg speedWind from/ knotsBaromVisibWave heightAir tempDewpointWater temp
2018-Jun-06 10:17N 48°17' W 004°25'0 0.7
2018-Jun-06 10:00N 48°17' W 004°25'1 2.7
2018-Jun-06 09:30N 48°18' W 004°26'2 4.5
2018-Jun-06 09:00N 48°19' W 004°30'2 4.4
2018-Jun-06 08:31N 48°18' W 004°26'  
2018-May-30 13:42N 48°17' W 004°25'0 1.8
2018-May-30 13:29N 48°17' W 004°25'1 2.0
2018-May-30 13:00N 48°18' W 004°26'2 4.2
2018-May-30 12:31N 48°18' W 004°29'1 2.5
2018-May-30 12:00N 48°17' W 004°30'0 0.1
2018-May-30 11:28N 48°17' W 004°30'0 0.0
2018-May-30 10:58N 48°17' W 004°30'0 0.0
2018-May-30 10:28N 48°17' W 004°30'1 1.7
2018-May-30 10:00N 48°18' W 004°29'1 2.6
2018-May-30 09:30N 48°18' W 004°27'1 2.9
2018-May-30 09:01N 48°18' W 004°25'1 1.6
2018-May-30 08:30N 48°17' W 004°25'  

Dump ship's entire track history